Terminal Aerodrome Forecast
Issued by NWS Melbourne, FL

Home | Current Version | Previous Version | Text Only | Print | Product List | Glossary On
Versions: 1 2 3 4 5 6 7 8 9 10 11 12 13 14 15 16 17 18 19 20 21 22 23 24 25
275
FTUS42 KMLB 271137
TAFMCO
TAF
KMCO 271137Z 2712/2812 VRB03KT P6SM SKC
     FM271600 24005KT P6SM FEW040
     FM280000 14007KT P6SM SKC
     FM280300 22003KT P6SM SKC=

USA.gov is the U.S. government's official web portal to all federal, state and local government web resources and services.